Главная страница
METAR-TAF:

METAR-TAF

Аэропорты :

Владикавказ, Россия

широта: 43-12-18N, долгота: 044-36-24E, высота над уровнем моря: 510 м

Текущие метеонаблюдения

Эта сводка был подготовлена 26 минут назад, в 12:30 UTC
Ветер 8 Узел от восточный
Температура 20°C
Влажность 35%
Давление 1025 hPa
Видимость 10 км и более

METAR: URMO 161230Z 09004MPS 9999 NSC 20/04 Q1025 R09/010070 NOSIG RMK QFE725/0967

Время: 15:56 (12:56 UTC)

Прогноз

Эта сводка был подготовлена 1 час и 56 минут назад, в 11:00 UTC
Прогноз действительный с 16-го 12 UTC до 16-го 21 UTC
Ветер 6 Узел от восточный с порывами до 16 Узел
Видимость 10 км и более
Отдельные облака на высоте 4000 фута

TAF: URMO 161100Z 1612/1621 09003G08MPS 9999 SCT040

Метеонаблюдения и прогнозы для более 4000 аэропортов (сводки METAR и TAF).

Имеющиеся станции представлены на карте желтыми и красными точками.

Чтобы увидеть название станции, наведите на нее мышь.

Затем щелкните, чтобы увидеть метеонаблюдения и метеопрогнозы.

Управление картой: чтобы увеличить масштаб, щелкните зеленые кнопки с черным крестиком; чтобы уменьшить масштаб, щелкните зеленую кнопку с тире; для просмотра соседних карт щелкайте зеленые стрелки.


METAR-TAF: